Aérodrome :
LOGIN :

S'inscrire | Disclaimer

   EN    FR    IT 

 










Légende :    VFR   VFR Marginal   IFR   IFR Intensif   IFR Très Intensif
Visi : 
Plafond : 
>= 8 km
>= 3000ft
5 à 8 km
1000 à 3000 ft
1500m à 5 km
500 à 1000 ft
800 à 1500m
200 à 500 ft
< 800m
< 200 ft
Symboles :   Orages  Brouillard  Fortes neiges  Fortes précipitations  Vent > 20 kt
SIGMETs :   Divers  Orages  Givrage  Turbulence  Onde Orograph.  Cendres Volcan.






- Altitude de l'aérodrome : 49 ft
- Code IATA : SEN


EGMC - Southend

DERNIER METAR :
  • 260020Z 33003KT 9999 SCT040 07/06 Q1019

METARs EXPIRÉS :
  • 252350Z 31003KT 9999 BKN040 07/06 Q1019
  • 252320Z 31003KT 9999 BKN041 07/06 Q1019
  • 252250Z 30004KT 9999 BKN045 08/06 Q1019
  • 252220Z 30002KT 9999 FEW042 BKN047 07/06 Q1018
  • 252150Z 32003KT 9999 FEW042 BKN049 08/06 Q1018

TAF TAF EGMC
Valide du 26 à 00h jusqu'au 26 à 09h UTC


252259Z 2600/2609 34006KT 9999 SCT014
PROB30
TEMPO 2604/2609 6000



MET'MAP, la Météo Aéronautique d'un coup d'oeil ! - Copyright ORBIFLY Décembre 2007 - Disclaimer

ORBIFLY MET'MAP TEAM :

Programmation & Développement : Alexandra Zaïnal
Sur une idée originale de : Baudouin d'Aumeries
Assistance à la programmation : Marc-Olivier Méhu
Soutien technique & logistique : Manuel Goepfert

Contact : metmap@orbifly.com




SOURCES & CREDITS :

   NOAA